Husk, North Carolina
Current Conditions -  °F | °C
As of 9:35 PM on Friday 24 Oct 2014 (Local Time) from KGEV Reporting Station
Clear Clear  
Wind Chill: 52°   Ceiling: Unl
Heat Index: 52°   Visibility: 10mi
Dew Point: 31°   Wind: 6mph
Humidity: 45%   Direction: 270°W
Pressure: 30.07"   Gusts: NA
Location:  36.524°N, 81.538°W
Report Text: KGEV 250135Z AUTO 27005KT 10SM CLR 11/M01 A3007 RMK AO2 T01111006
Loading
Personal Weather Stations






























Interactive Weather Map
Tropical Storm Tracking
New forecast layout! Learn more

10-Day Weather Forecast

Advertisements
Track Severe Weather on mobile